Airfield :
LOGIN :

Register | Disclaimer

   EN    FR    IT 

 










Legend :    VFR   Marginal VFR   IFR   Intensive IFR   Very Intensive IFR
Visi :
Ceiling :
>= 8 km
>= 3000ft
5 to 8 km
1000 to 3000 ft
1500m to 5 km
500 to 1000 ft
800 to 1500m
200 to 500 ft
< 800m
< 200 ft
Symbols :   Thunderstorms  Fog  Heavy snow  Heavy precipitations  Wind > 20 kt
SIGMETs :     Misc.  Thunderstorms  Icing  Turbulence  Mountain Waves  Volcanic Ashes






- Airport Elevation : 1545 ft
- IATA code : RAK


GMMX - Menara Int.

CURRENT METAR :
  • 210300Z VRB01KT CAVOK 11/07 Q1019 NOSIG

EXPIRED METARs :
  • 210230Z VRB02KT CAVOK 11/07 Q1020 NOSIG
  • 210200Z VRB02KT CAVOK 12/08 Q1020 NOSIG
  • 210130Z 08003KT CAVOK 12/08 Q1020 NOSIG
  • 210100Z VRB02KT 9999 FEW026 SCT120 13/08 Q1020 NOSIG

TAF TAF GMMX
Valid from the 21 at 00:00 until the 22 at 06:00 UTC


202300Z 2100/2206 22005KT 8000 NSC
TEMPO 2116/2120 04016KT SCT026



MET'MAP, your aeronautical weather chart ! - Copyright ORBIFLY December 2007 - Disclaimer

ORBIFLY MET'MAP TEAM :

Programming & Development : Alexandra Zaïnal
Concept & original design : Baudouin d'Aumeries
Assistance for programming : Marc-Olivier Méhu
Technical & hardware support : Manuel Goepfert

Contact : metmap@orbifly.com




SOURCES & CREDITS :

   NOAA